CDT,Max TemperatureF,Mean TemperatureF,Min TemperatureF,Max Dew PointF,MeanDew PointF,Min DewpointF,Max Humidity, Mean Humidity, Min Humidity, Max Sea Level PressureIn, Mean Sea Level PressureIn, Min Sea Level PressureIn, Max VisibilityMiles, Mean VisibilityMiles, Min VisibilityMiles, Max Wind SpeedMPH, Mean Wind SpeedMPH, Max Gust SpeedMPH,PrecipitationIn, CloudCover, Events, WindDirDegrees
2012-10-1,61,58,55,55,51,47,89,78,67,29.84,29.78,29.73,10,10,5,12,6,16,0.20,3,Rain,17
2012-10-2,61,57,53,54,51,48,89,81,67,29.90,29.81,29.73,10,10,7,16,7,23,0.03,7,Rain,331
2012-10-3,77,67,57,58,54,50,91,73,40,30.10,30.00,29.90,10,10,4,20,6,25,0.28,5,Rain-Thunderstorm,186
2012-10-4,80,68,57,61,56,50,91,70,42,30.19,30.13,30.10,10,10,10,15,8,21,0.07,1,,190
2012-10-5,55,49,42,50,44,38,92,85,77,30.21,30.17,30.11,10,9,2,15,7,23,0.73,6,Rain-Thunderstorm,343
2012-10-6,52,44,36,38,34,31,95,70,46,30.24,30.21,30.18,10,10,10,12,6,17,0.14,1,,311
2012-10-7,53,46,38,40,35,30,95,69,42,30.27,30.22,30.18,10,10,10,12,5,17,0.00,0,,304
2012-10-8,59,46,33,39,36,32,97,70,38,30.24,30.17,30.10,10,10,7,14,3,17,0.00,0,,181
2012-10-9,64,52,41,46,42,37,87,67,44,30.11,30.03,29.95,10,10,10,16,9,22,0.00,1,,180
2012-10-10,58,47,37,47,36,28,93,65,35,30.28,30.18,29.96,10,10,5,18,10,24,0.00,2,,309
2012-10-11,64,50,36,48,38,33,93,64,36,30.27,30.22,30.16,10,10,10,15,4,18,0.00,2,Thunderstorm,175
2012-10-12,67,57,47,50,48,45,95,72,49,30.36,30.27,30.20,10,9,0,13,4,20,0.01,3,Fog-Rain,63
2012-10-13,76,62,50,64,58,47,95,83,66,30.24,30.07,29.85,10,7,1,23,7,32,0.00,4,,166
2012-10-14,74,64,54,64,58,50,92,75,50,29.94,29.80,29.69,10,10,4,29,16,37,0.25,5,Rain,218
2012-10-15,67,56,46,50,46,41,93,72,42,30.02,29.97,29.92,10,10,10,10,5,,0.00,0,,283
2012-10-16,78,62,45,54,49,43,93,62,40,29.98,29.82,29.68,10,10,10,18,7,24,0.00,0,,156
2012-10-17,73,64,55,62,54,50,93,73,55,29.70,29.57,29.35,10,10,2,28,13,43,1.24,5,Rain-Thunderstorm,188
2012-10-18,62,56,49,51,40,32,89,58,32,29.65,29.61,29.57,10,10,10,24,12,32,0.00,2,,229
2012-10-19,53,50,47,46,43,38,86,71,55,29.78,29.66,29.55,10,10,5,23,12,30,0.00,7,Rain,250
2012-10-20,60,54,47,46,45,44,88,77,58,29.95,29.88,29.79,10,10,10,9,6,,0.00,5,,228
2012-10-21,76,62,48,63,52,45,86,68,47,30.00,29.96,29.93,10,10,10,14,7,16,0.00,2,,140
2012-10-22,79,71,63,64,56,51,82,61,51,30.01,29.98,29.94,10,10,2,24,10,28,0.35,3,Rain-Thunderstorm,168
2012-10-23,76,69,62,64,56,51,93,66,56,30.02,29.97,29.91,10,10,4,15,10,20,0.19,3,Rain-Thunderstorm,173
2012-10-24,80,70,61,64,59,55,80,69,56,30.03,29.98,29.93,10,10,10,16,10,21,0.00,0,,175
2012-10-25,80,63,46,63,57,43,90,72,55,30.13,29.92,29.83,10,10,5,23,12,36,0.30,3,Rain-Thunderstorm,187
2012-10-26,48,44,41,43,37,33,90,74,62,30.30,30.24,30.11,10,10,5,20,14,29,0.27,5,Rain,344
2012-10-27,51,43,35,38,34,32,86,70,55,30.28,30.23,30.19,10,10,10,17,10,24,0.00,1,,348
2012-10-28,51,44,37,36,33,32,82,70,55,30.24,30.21,30.19,10,10,10,13,9,21,0.00,2,,347
2012-10-29,54,44,35,36,32,28,86,64,39,30.28,30.20,30.06,10,10,10,20,10,25,0.00,0,,334
2012-10-30,56,48,39,29,27,21,66,49,27,30.06,29.92,29.83,10,10,10,24,12,34,0.00,0,,308
2012-10-31,52,44,35,32,28,24,76,58,34,29.96,29.92,29.88,10,10,7,17,8,22,0.00,0,,288